sensor_id;sensor_type;location;lat;lon;timestamp;P1;durP1;ratioP1;P2;durP2;ratioP2
68140;SDS011;54941;52.220;104.306;2023-06-10T00:00:09;7.72;;;5.80;;
68140;SDS011;54941;52.220;104.306;2023-06-10T00:02:36;7.18;;;5.90;;
68140;SDS011;54941;52.220;104.306;2023-06-10T00:05:02;7.18;;;5.18;;
68140;SDS011;54941;52.220;104.306;2023-06-10T00:07:29;11.50;;;6.15;;
68140;SDS011;54941;52.220;104.306;2023-06-10T00:09:56;7.38;;;5.68;;
68140;SDS011;54941;52.220;104.306;2023-06-10T00:12:22;7.45;;;5.70;;
68140;SDS011;54941;52.220;104.306;2023-06-10T00:14:50;8.20;;;5.97;;
68140;SDS011;54941;52.220;104.306;2023-06-10T00:17:16;8.02;;;5.80;;
68140;SDS011;54941;52.220;104.306;2023-06-10T00:19:42;7.75;;;6.30;;
68140;SDS011;54941;52.220;104.306;2023-06-10T00:22:09;7.38;;;5.90;;
68140;SDS011;54941;52.220;104.306;2023-06-10T00:24:35;6.72;;;5.55;;
68140;SDS011;54941;52.220;104.306;2023-06-10T00:27:01;7.18;;;6.13;;
68140;SDS011;54941;52.220;104.306;2023-06-10T00:29:28;8.13;;;5.90;;
68140;SDS011;54941;52.220;104.306;2023-06-10T00:31:56;7.53;;;6.43;;
68140;SDS011;54941;52.220;104.306;2023-06-10T00:34:22;8.40;;;6.22;;
68140;SDS011;54941;52.220;104.306;2023-06-10T00:36:48;7.80;;;6.10;;
68140;SDS011;54941;52.220;104.306;2023-06-10T00:39:16;7.85;;;5.75;;
68140;SDS011;54941;52.220;104.306;2023-06-10T00:41:42;8.95;;;6.03;;
68140;SDS011;54941;52.220;104.306;2023-06-10T00:44:09;7.10;;;5.93;;
68140;SDS011;54941;52.220;104.306;2023-06-10T00:46:35;6.55;;;5.50;;
68140;SDS011;54941;52.220;104.306;2023-06-10T00:49:03;8.27;;;6.00;;
68140;SDS011;54941;52.220;104.306;2023-06-10T00:51:29;9.90;;;5.93;;
68140;SDS011;54941;52.220;104.306;2023-06-10T00:53:56;6.55;;;5.80;;
68140;SDS011;54941;52.220;104.306;2023-06-10T00:56:23;6.68;;;5.63;;
68140;SDS011;54941;52.220;104.306;2023-06-10T00:58:50;9.20;;;5.57;;
68140;SDS011;54941;52.220;104.306;2023-06-10T01:01:16;9.23;;;6.10;;
68140;SDS011;54941;52.220;104.306;2023-06-10T01:03:42;6.60;;;5.43;;
68140;SDS011;54941;52.220;104.306;2023-06-10T01:06:13;7.28;;;5.82;;
68140;SDS011;54941;52.220;104.306;2023-06-10T01:08:46;6.88;;;5.55;;
68140;SDS011;54941;52.220;104.306;2023-06-10T01:11:19;7.25;;;5.60;;
68140;SDS011;54941;52.220;104.306;2023-06-10T01:13:49;10.65;;;5.50;;
68140;SDS011;54941;52.220;104.306;2023-06-10T01:16:17;7.55;;;5.57;;
68140;SDS011;54941;52.220;104.306;2023-06-10T01:18:44;8.10;;;5.97;;
68140;SDS011;54941;52.220;104.306;2023-06-10T01:21:16;10.63;;;5.90;;
68140;SDS011;54941;52.220;104.306;2023-06-10T01:23:45;7.95;;;5.53;;
68140;SDS011;54941;52.220;104.306;2023-06-10T01:26:12;8.02;;;5.80;;
68140;SDS011;54941;52.220;104.306;2023-06-10T01:28:41;7.43;;;6.13;;
68140;SDS011;54941;52.220;104.306;2023-06-10T01:31:13;7.82;;;5.80;;
68140;SDS011;54941;52.220;104.306;2023-06-10T01:33:45;7.18;;;6.25;;
68140;SDS011;54941;52.220;104.306;2023-06-10T01:36:15;8.70;;;6.15;;
68140;SDS011;54941;52.220;104.306;2023-06-10T01:38:43;7.18;;;5.90;;
68140;SDS011;54941;52.220;104.306;2023-06-10T01:41:10;7.50;;;6.10;;
68140;SDS011;54941;52.220;104.306;2023-06-10T01:43:38;8.25;;;5.70;;
68140;SDS011;54941;52.220;104.306;2023-06-10T01:46:05;6.32;;;5.60;;
68140;SDS011;54941;52.220;104.306;2023-06-10T01:48:32;7.07;;;5.90;;
68140;SDS011;54941;52.220;104.306;2023-06-10T01:50:58;7.72;;;6.00;;
68140;SDS011;54941;52.220;104.306;2023-06-10T01:53:26;7.40;;;6.20;;
68140;SDS011;54941;52.220;104.306;2023-06-10T01:55:52;7.32;;;5.72;;
68140;SDS011;54941;52.220;104.306;2023-06-10T01:58:19;9.43;;;6.25;;
68140;SDS011;54941;52.220;104.306;2023-06-10T02:00:45;7.55;;;5.85;;
68140;SDS011;54941;52.220;104.306;2023-06-10T02:03:11;8.57;;;6.07;;
68140;SDS011;54941;52.220;104.306;2023-06-10T02:05:38;7.70;;;5.30;;
68140;SDS011;54941;52.220;104.306;2023-06-10T02:08:05;8.43;;;6.00;;
68140;SDS011;54941;52.220;104.306;2023-06-10T02:10:33;8.40;;;5.80;;
68140;SDS011;54941;52.220;104.306;2023-06-10T02:12:59;6.63;;;5.38;;
68140;SDS011;54941;52.220;104.306;2023-06-10T02:15:26;7.15;;;5.53;;
68140;SDS011;54941;52.220;104.306;2023-06-10T02:17:52;6.82;;;5.80;;
68140;SDS011;54941;52.220;104.306;2023-06-10T02:20:19;6.65;;;5.47;;
68140;SDS011;54941;52.220;104.306;2023-06-10T02:22:45;6.35;;;5.28;;
68140;SDS011;54941;52.220;104.306;2023-06-10T02:25:12;7.60;;;5.85;;
68140;SDS011;54941;52.220;104.306;2023-06-10T02:27:40;6.95;;;5.72;;
68140;SDS011;54941;52.220;104.306;2023-06-10T02:30:06;6.55;;;5.63;;
68140;SDS011;54941;52.220;104.306;2023-06-10T02:32:33;6.65;;;5.60;;
68140;SDS011;54941;52.220;104.306;2023-06-10T02:35:00;8.60;;;6.70;;
68140;SDS011;54941;52.220;104.306;2023-06-10T02:37:26;16.65;;;9.13;;
68140;SDS011;54941;52.220;104.306;2023-06-10T02:39:54;9.27;;;6.70;;
68140;SDS011;54941;52.220;104.306;2023-06-10T02:42:20;9.43;;;6.72;;
68140;SDS011;54941;52.220;104.306;2023-06-10T02:44:48;7.80;;;6.32;;
68140;SDS011;54941;52.220;104.306;2023-06-10T02:47:14;10.85;;;5.82;;
68140;SDS011;54941;52.220;104.306;2023-06-10T02:49:41;12.35;;;7.30;;
68140;SDS011;54941;52.220;104.306;2023-06-10T02:52:07;7.88;;;5.78;;
68140;SDS011;54941;52.220;104.306;2023-06-10T02:54:34;7.90;;;6.50;;
68140;SDS011;54941;52.220;104.306;2023-06-10T02:57:00;16.98;;;8.57;;
68140;SDS011;54941;52.220;104.306;2023-06-10T02:59:26;8.88;;;6.50;;
68140;SDS011;54941;52.220;104.306;2023-06-10T03:01:54;10.40;;;6.40;;
68140;SDS011;54941;52.220;104.306;2023-06-10T03:04:21;7.13;;;5.95;;
68140;SDS011;54941;52.220;104.306;2023-06-10T03:06:47;10.05;;;5.90;;
68140;SDS011;54941;52.220;104.306;2023-06-10T03:09:13;7.43;;;5.88;;
68140;SDS011;54941;52.220;104.306;2023-06-10T03:11:39;7.28;;;6.00;;
68140;SDS011;54941;52.220;104.306;2023-06-10T03:14:06;8.35;;;5.90;;
68140;SDS011;54941;52.220;104.306;2023-06-10T03:16:33;6.47;;;5.78;;
68140;SDS011;54941;52.220;104.306;2023-06-10T03:19:02;7.35;;;5.75;;
68140;SDS011;54941;52.220;104.306;2023-06-10T03:21:28;7.30;;;5.72;;
68140;SDS011;54941;52.220;104.306;2023-06-10T03:23:54;6.72;;;5.65;;
68140;SDS011;54941;52.220;104.306;2023-06-10T03:26:20;7.00;;;5.72;;
68140;SDS011;54941;52.220;104.306;2023-06-10T03:28:47;7.57;;;5.82;;
68140;SDS011;54941;52.220;104.306;2023-06-10T03:31:13;8.43;;;5.72;;
68140;SDS011;54941;52.220;104.306;2023-06-10T03:33:40;9.73;;;5.93;;
68140;SDS011;54941;52.220;104.306;2023-06-10T03:36:07;8.18;;;6.22;;
68140;SDS011;54941;52.220;104.306;2023-06-10T03:38:34;8.45;;;5.85;;
68140;SDS011;54941;52.220;104.306;2023-06-10T03:41:00;7.30;;;6.10;;
68140;SDS011;54941;52.220;104.306;2023-06-10T03:43:26;7.80;;;6.20;;
68140;SDS011;54941;52.220;104.306;2023-06-10T03:45:53;8.38;;;6.25;;
68140;SDS011;54941;52.220;104.306;2023-06-10T03:48:19;7.57;;;6.20;;
68140;SDS011;54941;52.220;104.306;2023-06-10T03:50:46;7.75;;;6.20;;
68140;SDS011;54941;52.220;104.306;2023-06-10T03:53:13;6.78;;;5.78;;
68140;SDS011;54941;52.220;104.306;2023-06-10T03:55:40;7.88;;;5.88;;
68140;SDS011;54941;52.220;104.306;2023-06-10T03:58:06;7.63;;;6.22;;
68140;SDS011;54941;52.220;104.306;2023-06-10T04:00:32;6.93;;;6.20;;
68140;SDS011;54941;52.220;104.306;2023-06-10T04:02:59;6.97;;;5.78;;
68140;SDS011;54941;52.220;104.306;2023-06-10T04:05:25;7.93;;;6.03;;
68140;SDS011;54941;52.220;104.306;2023-06-10T04:07:52;8.43;;;5.88;;
68140;SDS011;54941;52.220;104.306;2023-06-10T04:10:20;9.18;;;5.63;;
68140;SDS011;54941;52.220;104.306;2023-06-10T04:12:46;7.82;;;5.82;;
68140;SDS011;54941;52.220;104.306;2023-06-10T04:15:12;9.77;;;5.97;;
68140;SDS011;54941;52.220;104.306;2023-06-10T04:17:39;10.10;;;6.15;;
68140;SDS011;54941;52.220;104.306;2023-06-10T04:20:05;12.73;;;6.32;;
68140;SDS011;54941;52.220;104.306;2023-06-10T04:22:32;10.05;;;6.35;;
68140;SDS011;54941;52.220;104.306;2023-06-10T04:24:59;7.03;;;5.78;;
68140;SDS011;54941;52.220;104.306;2023-06-10T04:27:27;10.10;;;6.20;;
68140;SDS011;54941;52.220;104.306;2023-06-10T04:29:54;9.02;;;6.28;;
68140;SDS011;54941;52.220;104.306;2023-06-10T04:32:21;7.55;;;6.72;;
68140;SDS011;54941;52.220;104.306;2023-06-10T04:34:47;7.72;;;6.10;;
68140;SDS011;54941;52.220;104.306;2023-06-10T04:37:14;9.10;;;6.63;;
68140;SDS011;54941;52.220;104.306;2023-06-10T04:39:40;9.55;;;6.80;;
68140;SDS011;54941;52.220;104.306;2023-06-10T04:42:06;9.73;;;6.57;;
68140;SDS011;54941;52.220;104.306;2023-06-10T04:44:34;9.88;;;6.30;;
68140;SDS011;54941;52.220;104.306;2023-06-10T04:47:01;8.10;;;6.35;;
68140;SDS011;54941;52.220;104.306;2023-06-10T04:49:28;8.02;;;6.35;;
68140;SDS011;54941;52.220;104.306;2023-06-10T04:51:54;8.07;;;6.15;;
68140;SDS011;54941;52.220;104.306;2023-06-10T04:54:20;9.32;;;6.72;;
68140;SDS011;54941;52.220;104.306;2023-06-10T04:56:47;7.30;;;6.35;;
68140;SDS011;54941;52.220;104.306;2023-06-10T04:59:13;8.10;;;6.07;;
68140;SDS011;54941;52.220;104.306;2023-06-10T05:01:41;8.13;;;6.15;;
68140;SDS011;54941;52.220;104.306;2023-06-10T05:04:08;9.10;;;6.45;;
68140;SDS011;54941;52.220;104.306;2023-06-10T05:06:34;8.02;;;6.70;;
68140;SDS011;54941;52.220;104.306;2023-06-10T05:09:00;8.20;;;6.30;;
68140;SDS011;54941;52.220;104.306;2023-06-10T05:11:27;7.88;;;6.00;;
68140;SDS011;54941;52.220;104.306;2023-06-10T05:13:54;8.80;;;6.43;;
68140;SDS011;54941;52.220;104.306;2023-06-10T05:16:20;8.65;;;6.30;;
68140;SDS011;54941;52.220;104.306;2023-06-10T05:18:48;8.23;;;6.80;;
68140;SDS011;54941;52.220;104.306;2023-06-10T05:21:14;9.98;;;7.03;;
68140;SDS011;54941;52.220;104.306;2023-06-10T05:23:40;8.90;;;6.60;;
68140;SDS011;54941;52.220;104.306;2023-06-10T05:26:07;7.63;;;6.32;;
68140;SDS011;54941;52.220;104.306;2023-06-10T05:28:33;9.43;;;6.90;;
68140;SDS011;54941;52.220;104.306;2023-06-10T05:31:00;8.68;;;6.93;;
68140;SDS011;54941;52.220;104.306;2023-06-10T05:33:26;8.48;;;6.55;;
68140;SDS011;54941;52.220;104.306;2023-06-10T05:35:54;8.75;;;6.75;;
68140;SDS011;54941;52.220;104.306;2023-06-10T05:38:20;7.45;;;5.70;;
68140;SDS011;54941;52.220;104.306;2023-06-10T05:40:47;8.93;;;7.35;;
68140;SDS011;54941;52.220;104.306;2023-06-10T05:43:13;8.88;;;7.20;;
68140;SDS011;54941;52.220;104.306;2023-06-10T05:45:39;8.55;;;6.75;;
68140;SDS011;54941;52.220;104.306;2023-06-10T05:48:06;8.30;;;6.85;;
68140;SDS011;54941;52.220;104.306;2023-06-10T05:50:33;9.15;;;6.88;;
68140;SDS011;54941;52.220;104.306;2023-06-10T05:53:01;8.63;;;7.10;;
68140;SDS011;54941;52.220;104.306;2023-06-10T05:55:28;8.93;;;7.07;;
68140;SDS011;54941;52.220;104.306;2023-06-10T05:58:00;7.97;;;7.10;;
68140;SDS011;54941;52.220;104.306;2023-06-10T06:00:27;8.35;;;6.55;;
68140;SDS011;54941;52.220;104.306;2023-06-10T06:02:53;9.00;;;6.97;;
68140;SDS011;54941;52.220;104.306;2023-06-10T06:05:20;8.00;;;7.10;;
68140;SDS011;54941;52.220;104.306;2023-06-10T06:07:46;8.43;;;6.70;;
68140;SDS011;54941;52.220;104.306;2023-06-10T06:10:14;9.13;;;7.18;;
68140;SDS011;54941;52.220;104.306;2023-06-10T06:12:40;10.63;;;7.25;;
68140;SDS011;54941;52.220;104.306;2023-06-10T06:15:07;7.75;;;6.88;;
68140;SDS011;54941;52.220;104.306;2023-06-10T06:17:34;7.85;;;7.05;;
68140;SDS011;54941;52.220;104.306;2023-06-10T06:20:00;8.10;;;6.70;;
68140;SDS011;54941;52.220;104.306;2023-06-10T06:22:27;9.02;;;6.53;;
68140;SDS011;54941;52.220;104.306;2023-06-10T06:24:54;9.23;;;7.60;;
68140;SDS011;54941;52.220;104.306;2023-06-10T06:27:21;9.30;;;7.38;;
68140;SDS011;54941;52.220;104.306;2023-06-10T06:29:48;9.75;;;7.28;;
68140;SDS011;54941;52.220;104.306;2023-06-10T06:32:14;7.95;;;7.07;;
68140;SDS011;54941;52.220;104.306;2023-06-10T06:34:40;9.48;;;7.82;;
68140;SDS011;54941;52.220;104.306;2023-06-10T06:37:07;8.63;;;7.22;;
68140;SDS011;54941;52.220;104.306;2023-06-10T06:39:33;7.53;;;6.70;;
68140;SDS011;54941;52.220;104.306;2023-06-10T06:41:59;8.52;;;7.47;;
68140;SDS011;54941;52.220;104.306;2023-06-10T06:44:27;12.13;;;6.65;;
68140;SDS011;54941;52.220;104.306;2023-06-10T06:46:53;10.32;;;6.80;;
68140;SDS011;54941;52.220;104.306;2023-06-10T06:49:20;10.82;;;7.53;;
68140;SDS011;54941;52.220;104.306;2023-06-10T06:51:46;9.10;;;7.75;;
68140;SDS011;54941;52.220;104.306;2023-06-10T06:54:12;10.30;;;8.13;;
68140;SDS011;54941;52.220;104.306;2023-06-10T06:56:39;10.30;;;8.20;;
68140;SDS011;54941;52.220;104.306;2023-06-10T06:59:05;8.32;;;7.47;;
68140;SDS011;54941;52.220;104.306;2023-06-10T07:01:33;9.93;;;7.82;;
68140;SDS011;54941;52.220;104.306;2023-06-10T07:03:59;8.10;;;7.30;;
68140;SDS011;54941;52.220;104.306;2023-06-10T07:06:26;10.52;;;8.43;;
68140;SDS011;54941;52.220;104.306;2023-06-10T07:08:52;10.70;;;8.00;;
68140;SDS011;54941;52.220;104.306;2023-06-10T07:11:18;9.38;;;8.38;;
68140;SDS011;54941;52.220;104.306;2023-06-10T07:13:45;9.18;;;7.80;;
68140;SDS011;54941;52.220;104.306;2023-06-10T07:16:11;9.68;;;7.88;;
68140;SDS011;54941;52.220;104.306;2023-06-10T07:18:39;10.13;;;8.57;;
68140;SDS011;54941;52.220;104.306;2023-06-10T07:21:06;10.93;;;8.10;;
68140;SDS011;54941;52.220;104.306;2023-06-10T07:23:32;8.75;;;7.55;;
68140;SDS011;54941;52.220;104.306;2023-06-10T07:25:58;9.02;;;7.78;;
68140;SDS011;54941;52.220;104.306;2023-06-10T07:28:25;9.82;;;8.20;;
68140;SDS011;54941;52.220;104.306;2023-06-10T07:30:51;9.23;;;8.07;;
68140;SDS011;54941;52.220;104.306;2023-06-10T07:33:17;9.52;;;8.25;;
68140;SDS011;54941;52.220;104.306;2023-06-10T07:35:45;9.60;;;8.50;;
68140;SDS011;54941;52.220;104.306;2023-06-10T07:38:12;11.57;;;8.60;;
68140;SDS011;54941;52.220;104.306;2023-06-10T07:40:38;9.18;;;8.05;;
68140;SDS011;54941;52.220;104.306;2023-06-10T07:43:04;11.07;;;8.40;;
68140;SDS011;54941;52.220;104.306;2023-06-10T07:45:31;13.30;;;8.25;;
68140;SDS011;54941;52.220;104.306;2023-06-10T07:47:57;10.95;;;8.55;;
68140;SDS011;54941;52.220;104.306;2023-06-10T07:50:23;10.30;;;7.70;;
68140;SDS011;54941;52.220;104.306;2023-06-10T07:52:51;10.10;;;8.52;;
68140;SDS011;54941;52.220;104.306;2023-06-10T07:55:18;12.30;;;9.02;;
68140;SDS011;54941;52.220;104.306;2023-06-10T07:57:44;9.18;;;7.97;;
68140;SDS011;54941;52.220;104.306;2023-06-10T08:00:11;11.30;;;8.70;;
68140;SDS011;54941;52.220;104.306;2023-06-10T08:02:37;10.68;;;8.50;;
68140;SDS011;54941;52.220;104.306;2023-06-10T08:05:04;10.32;;;8.13;;
68140;SDS011;54941;52.220;104.306;2023-06-10T08:07:31;10.52;;;8.55;;
68140;SDS011;54941;52.220;104.306;2023-06-10T08:10:00;10.25;;;9.15;;
68140;SDS011;54941;52.220;104.306;2023-06-10T08:12:28;12.93;;;10.15;;
68140;SDS011;54941;52.220;104.306;2023-06-10T08:14:54;9.20;;;8.18;;
68140;SDS011;54941;52.220;104.306;2023-06-10T08:17:20;10.63;;;8.70;;
68140;SDS011;54941;52.220;104.306;2023-06-10T08:19:47;11.15;;;9.75;;
68140;SDS011;54941;52.220;104.306;2023-06-10T08:22:13;9.93;;;8.50;;
68140;SDS011;54941;52.220;104.306;2023-06-10T08:24:40;11.20;;;8.88;;
68140;SDS011;54941;52.220;104.306;2023-06-10T08:27:07;10.52;;;9.30;;
68140;SDS011;54941;52.220;104.306;2023-06-10T08:29:34;10.88;;;8.95;;
68140;SDS011;54941;52.220;104.306;2023-06-10T08:32:00;11.23;;;9.20;;
68140;SDS011;54941;52.220;104.306;2023-06-10T08:34:26;10.90;;;9.38;;
68140;SDS011;54941;52.220;104.306;2023-06-10T08:36:53;11.05;;;9.38;;
68140;SDS011;54941;52.220;104.306;2023-06-10T08:39:20;12.32;;;10.20;;
68140;SDS011;54941;52.220;104.306;2023-06-10T08:41:49;10.80;;;8.15;;
68140;SDS011;54941;52.220;104.306;2023-06-10T08:44:25;10.57;;;9.48;;
68140;SDS011;54941;52.220;104.306;2023-06-10T08:46:54;15.48;;;12.45;;
68140;SDS011;54941;52.220;104.306;2023-06-10T08:49:24;19.75;;;15.13;;
68140;SDS011;54941;52.220;104.306;2023-06-10T08:54:21;10.35;;;9.30;;
68140;SDS011;54941;52.220;104.306;2023-06-10T08:56:50;10.50;;;9.20;;
68140;SDS011;54941;52.220;104.306;2023-06-10T08:59:19;12.20;;;9.85;;
68140;SDS011;54941;52.220;104.306;2023-06-10T09:01:48;11.77;;;9.93;;
68140;SDS011;54941;52.220;104.306;2023-06-10T09:04:15;10.73;;;9.30;;
68140;SDS011;54941;52.220;104.306;2023-06-10T09:06:42;11.77;;;9.23;;
68140;SDS011;54941;52.220;104.306;2023-06-10T09:09:08;12.77;;;10.10;;
68140;SDS011;54941;52.220;104.306;2023-06-10T09:11:35;11.07;;;9.55;;
68140;SDS011;54941;52.220;104.306;2023-06-10T09:16:29;10.25;;;8.43;;
68140;SDS011;54941;52.220;104.306;2023-06-10T09:18:57;10.23;;;9.13;;
68140;SDS011;54941;52.220;104.306;2023-06-10T09:21:24;10.43;;;8.38;;
68140;SDS011;54941;52.220;104.306;2023-06-10T09:23:50;11.73;;;9.90;;
68140;SDS011;54941;52.220;104.306;2023-06-10T09:26:17;12.50;;;8.35;;
68140;SDS011;54941;52.220;104.306;2023-06-10T09:28:44;12.25;;;8.57;;
68140;SDS011;54941;52.220;104.306;2023-06-10T09:31:13;10.70;;;9.02;;
68140;SDS011;54941;52.220;104.306;2023-06-10T09:33:40;10.50;;;8.35;;
68140;SDS011;54941;52.220;104.306;2023-06-10T09:36:08;9.32;;;7.68;;
68140;SDS011;54941;52.220;104.306;2023-06-10T09:38:34;11.45;;;8.60;;
68140;SDS011;54941;52.220;104.306;2023-06-10T09:41:01;11.23;;;8.75;;
68140;SDS011;54941;52.220;104.306;2023-06-10T09:43:38;9.80;;;8.70;;
68140;SDS011;54941;52.220;104.306;2023-06-10T09:46:06;12.80;;;8.50;;
68140;SDS011;54941;52.220;104.306;2023-06-10T09:48:34;13.48;;;7.80;;
68140;SDS011;54941;52.220;104.306;2023-06-10T09:51:09;15.60;;;7.95;;
68140;SDS011;54941;52.220;104.306;2023-06-10T09:53:36;10.70;;;8.27;;
68140;SDS011;54941;52.220;104.306;2023-06-10T09:56:03;10.55;;;8.00;;
68140;SDS011;54941;52.220;104.306;2023-06-10T09:58:36;10.25;;;8.07;;
68140;SDS011;54941;52.220;104.306;2023-06-10T10:01:06;9.90;;;7.63;;
68140;SDS011;54941;52.220;104.306;2023-06-10T10:03:42;8.73;;;7.20;;
68140;SDS011;54941;52.220;104.306;2023-06-10T10:06:11;11.00;;;7.88;;
68140;SDS011;54941;52.220;104.306;2023-06-10T10:08:38;10.65;;;8.55;;
68140;SDS011;54941;52.220;104.306;2023-06-10T10:11:04;10.95;;;8.68;;
68140;SDS011;54941;52.220;104.306;2023-06-10T10:13:31;10.57;;;7.90;;
68140;SDS011;54941;52.220;104.306;2023-06-10T10:16:00;10.60;;;7.97;;
68140;SDS011;54941;52.220;104.306;2023-06-10T10:18:30;10.27;;;8.80;;
68140;SDS011;54941;52.220;104.306;2023-06-10T10:20:59;10.77;;;7.82;;
68140;SDS011;54941;52.220;104.306;2023-06-10T10:23:34;11.18;;;7.97;;
68140;SDS011;54941;52.220;104.306;2023-06-10T10:26:09;11.45;;;7.88;;
68140;SDS011;54941;52.220;104.306;2023-06-10T10:28:37;9.93;;;7.82;;
68140;SDS011;54941;52.220;104.306;2023-06-10T10:31:09;10.07;;;7.97;;
68140;SDS011;54941;52.220;104.306;2023-06-10T10:33:40;10.30;;;8.40;;
68140;SDS011;54941;52.220;104.306;2023-06-10T10:36:23;12.20;;;8.82;;
68140;SDS011;54941;52.220;104.306;2023-06-10T10:38:51;12.95;;;9.25;;
68140;SDS011;54941;52.220;104.306;2023-06-10T10:41:18;10.65;;;8.18;;
68140;SDS011;54941;52.220;104.306;2023-06-10T10:43:45;10.60;;;8.77;;
68140;SDS011;54941;52.220;104.306;2023-06-10T10:46:14;10.77;;;8.57;;
68140;SDS011;54941;52.220;104.306;2023-06-10T10:48:42;10.52;;;7.40;;
68140;SDS011;54941;52.220;104.306;2023-06-10T10:51:09;11.73;;;8.55;;
68140;SDS011;54941;52.220;104.306;2023-06-10T10:53:36;10.23;;;8.43;;
68140;SDS011;54941;52.220;104.306;2023-06-10T10:56:08;11.55;;;8.52;;
68140;SDS011;54941;52.220;104.306;2023-06-10T10:58:38;10.73;;;7.55;;
68140;SDS011;54941;52.220;104.306;2023-06-10T11:01:11;12.05;;;7.93;;
68140;SDS011;54941;52.220;104.306;2023-06-10T11:03:42;12.40;;;8.38;;
68140;SDS011;54941;52.220;104.306;2023-06-10T11:06:11;10.20;;;8.38;;
68140;SDS011;54941;52.220;104.306;2023-06-10T11:08:49;11.85;;;7.63;;
68140;SDS011;54941;52.220;104.306;2023-06-10T11:11:21;13.18;;;8.07;;
68140;SDS011;54941;52.220;104.306;2023-06-10T11:13:59;10.00;;;8.43;;
68140;SDS011;54941;52.220;104.306;2023-06-10T11:16:37;10.40;;;7.88;;
68140;SDS011;54941;52.220;104.306;2023-06-10T11:19:05;10.48;;;8.68;;
68140;SDS011;54941;52.220;104.306;2023-06-10T11:21:31;10.15;;;8.05;;
68140;SDS011;54941;52.220;104.306;2023-06-10T11:24:11;12.73;;;8.80;;
68140;SDS011;54941;52.220;104.306;2023-06-10T11:26:43;12.20;;;9.23;;
68140;SDS011;54941;52.220;104.306;2023-06-10T11:29:10;13.40;;;9.23;;
68140;SDS011;54941;52.220;104.306;2023-06-10T11:34:23;12.93;;;10.10;;
68140;SDS011;54941;52.220;104.306;2023-06-10T11:36:50;12.98;;;9.70;;
68140;SDS011;54941;52.220;104.306;2023-06-10T11:39:17;13.80;;;8.30;;
68140;SDS011;54941;52.220;104.306;2023-06-10T11:41:47;13.68;;;9.45;;
68140;SDS011;54941;52.220;104.306;2023-06-10T11:44:14;14.52;;;10.52;;
68140;SDS011;54941;52.220;104.306;2023-06-10T11:46:40;12.45;;;9.73;;
68140;SDS011;54941;52.220;104.306;2023-06-10T11:49:07;16.67;;;10.80;;
68140;SDS011;54941;52.220;104.306;2023-06-10T11:51:34;13.32;;;9.80;;
68140;SDS011;54941;52.220;104.306;2023-06-10T11:54:01;14.68;;;10.77;;
68140;SDS011;54941;52.220;104.306;2023-06-10T11:56:29;15.18;;;10.15;;
68140;SDS011;54941;52.220;104.306;2023-06-10T11:58:58;15.02;;;10.10;;
68140;SDS011;54941;52.220;104.306;2023-06-10T12:01:25;14.38;;;10.40;;
68140;SDS011;54941;52.220;104.306;2023-06-10T12:03:59;14.98;;;10.55;;
68140;SDS011;54941;52.220;104.306;2023-06-10T12:09:02;16.75;;;11.23;;
68140;SDS011;54941;52.220;104.306;2023-06-10T12:11:28;19.27;;;11.82;;
68140;SDS011;54941;52.220;104.306;2023-06-10T12:13:55;18.40;;;12.85;;
68140;SDS011;54941;52.220;104.306;2023-06-10T12:16:23;16.95;;;13.13;;
68140;SDS011;54941;52.220;104.306;2023-06-10T12:18:49;16.55;;;12.45;;
68140;SDS011;54941;52.220;104.306;2023-06-10T12:21:16;15.43;;;11.90;;
68140;SDS011;54941;52.220;104.306;2023-06-10T12:26:35;26.90;;;17.98;;
68140;SDS011;54941;52.220;104.306;2023-06-10T12:31:57;39.42;;;23.45;;
68140;SDS011;54941;52.220;104.306;2023-06-10T12:34:35;57.15;;;37.15;;
68140;SDS011;54941;52.220;104.306;2023-06-10T12:37:02;31.58;;;23.55;;
68140;SDS011;54941;52.220;104.306;2023-06-10T12:39:30;33.40;;;21.80;;
68140;SDS011;54941;52.220;104.306;2023-06-10T12:41:57;40.55;;;26.92;;
68140;SDS011;54941;52.220;104.306;2023-06-10T12:44:30;41.00;;;24.00;;
68140;SDS011;54941;52.220;104.306;2023-06-10T12:46:59;37.78;;;23.45;;
68140;SDS011;54941;52.220;104.306;2023-06-10T12:49:26;37.45;;;23.30;;
68140;SDS011;54941;52.220;104.306;2023-06-10T12:51:52;34.28;;;19.50;;
68140;SDS011;54941;52.220;104.306;2023-06-10T12:54:19;32.35;;;20.80;;
68140;SDS011;54941;52.220;104.306;2023-06-10T12:56:45;19.70;;;13.82;;
68140;SDS011;54941;52.220;104.306;2023-06-10T12:59:12;22.63;;;15.48;;
68140;SDS011;54941;52.220;104.306;2023-06-10T13:01:38;21.08;;;13.85;;
68140;SDS011;54941;52.220;104.306;2023-06-10T13:04:06;23.00;;;14.55;;
68140;SDS011;54941;52.220;104.306;2023-06-10T13:06:32;18.70;;;12.32;;
68140;SDS011;54941;52.220;104.306;2023-06-10T13:08:58;21.85;;;13.05;;
68140;SDS011;54941;52.220;104.306;2023-06-10T13:11:25;18.63;;;13.27;;
68140;SDS011;54941;52.220;104.306;2023-06-10T13:13:51;18.95;;;13.02;;
68140;SDS011;54941;52.220;104.306;2023-06-10T13:16:17;19.25;;;12.52;;
68140;SDS011;54941;52.220;104.306;2023-06-10T13:18:44;17.15;;;11.60;;
68140;SDS011;54941;52.220;104.306;2023-06-10T13:21:12;15.25;;;11.00;;
68140;SDS011;54941;52.220;104.306;2023-06-10T13:23:38;16.17;;;11.55;;
68140;SDS011;54941;52.220;104.306;2023-06-10T13:26:04;16.15;;;10.60;;
68140;SDS011;54941;52.220;104.306;2023-06-10T13:28:31;13.85;;;10.65;;
68140;SDS011;54941;52.220;104.306;2023-06-10T13:30:57;15.02;;;10.43;;
68140;SDS011;54941;52.220;104.306;2023-06-10T13:33:23;13.63;;;9.60;;
68140;SDS011;54941;52.220;104.306;2023-06-10T13:35:49;11.38;;;8.43;;
68140;SDS011;54941;52.220;104.306;2023-06-10T13:38:17;13.23;;;8.75;;
68140;SDS011;54941;52.220;104.306;2023-06-10T13:40:43;16.73;;;9.52;;
68140;SDS011;54941;52.220;104.306;2023-06-10T13:43:10;12.52;;;9.32;;
68140;SDS011;54941;52.220;104.306;2023-06-10T13:45:36;16.83;;;10.95;;
68140;SDS011;54941;52.220;104.306;2023-06-10T13:48:03;20.35;;;11.45;;
68140;SDS011;54941;52.220;104.306;2023-06-10T13:50:29;20.00;;;10.50;;
68140;SDS011;54941;52.220;104.306;2023-06-10T13:52:56;17.15;;;10.35;;
68140;SDS011;54941;52.220;104.306;2023-06-10T13:55:24;16.55;;;10.63;;
68140;SDS011;54941;52.220;104.306;2023-06-10T13:57:50;13.48;;;8.68;;
68140;SDS011;54941;52.220;104.306;2023-06-10T14:00:17;14.55;;;8.43;;
68140;SDS011;54941;52.220;104.306;2023-06-10T14:02:43;15.32;;;9.20;;
68140;SDS011;54941;52.220;104.306;2023-06-10T14:05:10;12.93;;;8.45;;
68140;SDS011;54941;52.220;104.306;2023-06-10T14:07:36;12.13;;;8.63;;
68140;SDS011;54941;52.220;104.306;2023-06-10T14:10:03;15.25;;;8.15;;
68140;SDS011;54941;52.220;104.306;2023-06-10T14:12:31;12.30;;;7.93;;
68140;SDS011;54941;52.220;104.306;2023-06-10T14:14:57;12.48;;;7.70;;
68140;SDS011;54941;52.220;104.306;2023-06-10T14:17:24;19.75;;;9.45;;
68140;SDS011;54941;52.220;104.306;2023-06-10T14:19:50;14.60;;;9.63;;
68140;SDS011;54941;52.220;104.306;2023-06-10T14:22:19;14.98;;;10.43;;
68140;SDS011;54941;52.220;104.306;2023-06-10T14:24:46;15.35;;;9.60;;
68140;SDS011;54941;52.220;104.306;2023-06-10T14:27:12;13.93;;;9.55;;
68140;SDS011;54941;52.220;104.306;2023-06-10T14:29:40;12.85;;;8.27;;